sensor_id;sensor_type;location;lat;lon;timestamp;pressure;altitude;pressure_sealevel;temperature;humidity
63321;BME280;49449;48.800;9.534;2024-02-23T00:00:15;96606.88;;;5.98;44.58
63321;BME280;49449;48.800;9.534;2024-02-23T00:02:46;96614.59;;;6.32;43.89
63321;BME280;49449;48.800;9.534;2024-02-23T00:05:13;96625.13;;;6.59;43.63
63321;BME280;49449;48.800;9.534;2024-02-23T00:07:41;96627.84;;;6.70;43.31
63321;BME280;49449;48.800;9.534;2024-02-23T00:10:09;96635.16;;;6.68;42.82
63321;BME280;49449;48.800;9.534;2024-02-23T00:12:37;96633.56;;;6.67;42.26
63321;BME280;49449;48.800;9.534;2024-02-23T00:15:05;96636.06;;;6.78;42.39
63321;BME280;49449;48.800;9.534;2024-02-23T00:17:33;96638.84;;;6.99;42.11
63321;BME280;49449;48.800;9.534;2024-02-23T00:20:03;96637.56;;;7.01;42.19
63321;BME280;49449;48.800;9.534;2024-02-23T00:22:32;96625.81;;;6.77;42.16
63321;BME280;49449;48.800;9.534;2024-02-23T00:25:00;96628.38;;;6.44;42.34
63321;BME280;49449;48.800;9.534;2024-02-23T00:27:28;96641.13;;;6.36;42.46
63321;BME280;49449;48.800;9.534;2024-02-23T00:29:56;96663.03;;;6.46;41.71
63321;BME280;49449;48.800;9.534;2024-02-23T00:32:24;96670.59;;;6.43;42.36
63321;BME280;49449;48.800;9.534;2024-02-23T00:34:52;96687.78;;;6.34;42.66
63321;BME280;49449;48.800;9.534;2024-02-23T00:37:21;96678.44;;;6.21;42.56
63321;BME280;49449;48.800;9.534;2024-02-23T00:39:49;96682.16;;;6.03;42.96
63321;BME280;49449;48.800;9.534;2024-02-23T00:42:17;96698.69;;;5.64;43.98
63321;BME280;49449;48.800;9.534;2024-02-23T00:44:46;96690.13;;;5.18;44.86
63321;BME280;49449;48.800;9.534;2024-02-23T00:47:13;96710.13;;;5.24;44.54
63321;BME280;49449;48.800;9.534;2024-02-23T00:49:41;96690.22;;;5.23;44.49
63321;BME280;49449;48.800;9.534;2024-02-23T00:52:09;96708.81;;;4.93;45.16
63321;BME280;49449;48.800;9.534;2024-02-23T00:54:38;96710.53;;;5.16;44.36
63321;BME280;49449;48.800;9.534;2024-02-23T00:57:06;96703.84;;;5.25;44.38
63321;BME280;49449;48.800;9.534;2024-02-23T00:59:34;96691.00;;;5.24;44.57
63321;BME280;49449;48.800;9.534;2024-02-23T01:02:02;96688.47;;;5.46;43.73
63321;BME280;49449;48.800;9.534;2024-02-23T01:04:31;96704.03;;;5.36;44.27
63321;BME280;49449;48.800;9.534;2024-02-23T01:06:59;96695.50;;;5.45;44.07
63321;BME280;49449;48.800;9.534;2024-02-23T01:09:27;96709.00;;;5.71;43.23
63321;BME280;49449;48.800;9.534;2024-02-23T01:11:56;96711.03;;;5.86;43.67
63321;BME280;49449;48.800;9.534;2024-02-23T01:14:24;96712.94;;;5.74;43.77
63321;BME280;49449;48.800;9.534;2024-02-23T01:16:52;96715.31;;;4.90;45.63
63321;BME280;49449;48.800;9.534;2024-02-23T01:19:19;96720.28;;;5.21;44.49
63321;BME280;49449;48.800;9.534;2024-02-23T01:21:47;96710.84;;;5.37;44.46
63321;BME280;49449;48.800;9.534;2024-02-23T01:24:15;96719.50;;;5.37;44.35
63321;BME280;49449;48.800;9.534;2024-02-23T01:26:43;96714.63;;;5.12;45.48
63321;BME280;49449;48.800;9.534;2024-02-23T01:29:13;96706.88;;;5.34;44.48
63321;BME280;49449;48.800;9.534;2024-02-23T01:31:43;96700.59;;;5.52;44.54
63321;BME280;49449;48.800;9.534;2024-02-23T01:34:11;96708.84;;;5.78;44.09
63321;BME280;49449;48.800;9.534;2024-02-23T01:36:38;96703.91;;;5.64;44.32
63321;BME280;49449;48.800;9.534;2024-02-23T01:39:06;96709.00;;;5.71;43.94
63321;BME280;49449;48.800;9.534;2024-02-23T01:41:34;96715.34;;;5.58;43.96
63321;BME280;49449;48.800;9.534;2024-02-23T01:44:02;96706.22;;;5.61;43.91
63321;BME280;49449;48.800;9.534;2024-02-23T01:46:32;96715.72;;;5.67;44.05
63321;BME280;49449;48.800;9.534;2024-02-23T01:49:00;96717.66;;;5.38;44.49
63321;BME280;49449;48.800;9.534;2024-02-23T01:51:28;96718.47;;;4.92;46.23
63321;BME280;49449;48.800;9.534;2024-02-23T01:53:56;96724.88;;;4.85;47.34
63321;BME280;49449;48.800;9.534;2024-02-23T01:56:26;96727.25;;;4.86;47.30
63321;BME280;49449;48.800;9.534;2024-02-23T01:58:55;96736.41;;;4.72;47.80
63321;BME280;49449;48.800;9.534;2024-02-23T02:01:26;96727.06;;;4.76;48.00
63321;BME280;49449;48.800;9.534;2024-02-23T02:03:55;96718.69;;;4.62;47.89
63321;BME280;49449;48.800;9.534;2024-02-23T02:06:24;96720.13;;;4.41;48.27
63321;BME280;49449;48.800;9.534;2024-02-23T02:08:52;96722.81;;;4.17;49.03
63321;BME280;49449;48.800;9.534;2024-02-23T02:11:20;96729.03;;;4.28;48.18
63321;BME280;49449;48.800;9.534;2024-02-23T02:13:48;96729.06;;;4.05;48.73
63321;BME280;49449;48.800;9.534;2024-02-23T02:16:16;96720.44;;;3.92;48.92
63321;BME280;49449;48.800;9.534;2024-02-23T02:18:44;96726.91;;;3.90;49.03
63321;BME280;49449;48.800;9.534;2024-02-23T02:21:13;96734.97;;;4.00;48.77
63321;BME280;49449;48.800;9.534;2024-02-23T02:23:43;96745.66;;;4.10;48.37
63321;BME280;49449;48.800;9.534;2024-02-23T02:26:11;96747.34;;;3.69;48.99
63321;BME280;49449;48.800;9.534;2024-02-23T02:28:39;96741.88;;;3.35;49.50
63321;BME280;49449;48.800;9.534;2024-02-23T02:31:07;96741.59;;;3.25;49.40
63321;BME280;49449;48.800;9.534;2024-02-23T02:33:34;96733.72;;;2.71;50.81
63321;BME280;49449;48.800;9.534;2024-02-23T02:36:03;96746.88;;;3.06;50.05
63321;BME280;49449;48.800;9.534;2024-02-23T02:38:32;96733.75;;;3.25;49.02
63321;BME280;49449;48.800;9.534;2024-02-23T02:41:00;96725.41;;;3.35;48.92
63321;BME280;49449;48.800;9.534;2024-02-23T02:43:28;96729.66;;;3.59;48.29
63321;BME280;49449;48.800;9.534;2024-02-23T02:45:56;96725.19;;;3.36;48.65
63321;BME280;49449;48.800;9.534;2024-02-23T02:48:24;96727.81;;;4.07;47.03
63321;BME280;49449;48.800;9.534;2024-02-23T02:50:52;96733.59;;;4.09;46.66
63321;BME280;49449;48.800;9.534;2024-02-23T02:53:22;96731.53;;;4.23;46.69
63321;BME280;49449;48.800;9.534;2024-02-23T02:55:51;96737.28;;;4.49;45.80
63321;BME280;49449;48.800;9.534;2024-02-23T02:58:19;96730.75;;;4.63;45.54
63321;BME280;49449;48.800;9.534;2024-02-23T03:00:46;96725.19;;;4.60;45.59
63321;BME280;49449;48.800;9.534;2024-02-23T03:03:14;96742.78;;;4.35;46.35
63321;BME280;49449;48.800;9.534;2024-02-23T03:05:42;96751.69;;;3.87;46.50
63321;BME280;49449;48.800;9.534;2024-02-23T03:08:10;96757.13;;;4.09;46.56
63321;BME280;49449;48.800;9.534;2024-02-23T03:10:38;96750.09;;;3.98;46.47
63321;BME280;49449;48.800;9.534;2024-02-23T03:13:07;96749.84;;;4.64;45.54
63321;BME280;49449;48.800;9.534;2024-02-23T03:15:35;96751.59;;;4.99;44.53
63321;BME280;49449;48.800;9.534;2024-02-23T03:18:03;96747.16;;;4.87;44.80
63321;BME280;49449;48.800;9.534;2024-02-23T03:20:31;96744.69;;;5.09;44.29
63321;BME280;49449;48.800;9.534;2024-02-23T03:22:58;96751.19;;;5.07;43.95
63321;BME280;49449;48.800;9.534;2024-02-23T03:25:27;96754.06;;;5.22;43.98
63321;BME280;49449;48.800;9.534;2024-02-23T03:27:55;96734.09;;;5.50;43.46
63321;BME280;49449;48.800;9.534;2024-02-23T03:30:24;96749.56;;;5.35;42.85
63321;BME280;49449;48.800;9.534;2024-02-23T03:32:52;96765.38;;;5.57;43.17
63321;BME280;49449;48.800;9.534;2024-02-23T03:35:20;96753.69;;;5.30;42.91
63321;BME280;49449;48.800;9.534;2024-02-23T03:37:48;96722.75;;;5.27;43.09
63321;BME280;49449;48.800;9.534;2024-02-23T03:40:16;96719.56;;;5.42;42.34
63321;BME280;49449;48.800;9.534;2024-02-23T03:42:45;96717.81;;;5.65;42.70
63321;BME280;49449;48.800;9.534;2024-02-23T03:45:13;96739.97;;;5.57;42.34
63321;BME280;49449;48.800;9.534;2024-02-23T03:47:42;96756.16;;;5.54;42.48
63321;BME280;49449;48.800;9.534;2024-02-23T03:50:10;96757.78;;;5.26;42.62
63321;BME280;49449;48.800;9.534;2024-02-23T03:52:38;96761.00;;;5.00;42.93
63321;BME280;49449;48.800;9.534;2024-02-23T03:55:06;96782.22;;;5.15;42.43
63321;BME280;49449;48.800;9.534;2024-02-23T03:57:34;96797.41;;;4.61;43.27
63321;BME280;49449;48.800;9.534;2024-02-23T04:00:03;96794.47;;;4.86;42.56
63321;BME280;49449;48.800;9.534;2024-02-23T04:02:32;96781.09;;;4.30;43.19
63321;BME280;49449;48.800;9.534;2024-02-23T04:05:02;96761.97;;;4.93;42.56
63321;BME280;49449;48.800;9.534;2024-02-23T04:07:29;96760.72;;;5.13;42.07
63321;BME280;49449;48.800;9.534;2024-02-23T04:09:57;96759.63;;;5.09;42.12
63321;BME280;49449;48.800;9.534;2024-02-23T04:12:25;96767.84;;;5.01;42.20
63321;BME280;49449;48.800;9.534;2024-02-23T04:14:53;96785.06;;;4.85;42.48
63321;BME280;49449;48.800;9.534;2024-02-23T04:17:21;96786.25;;;4.65;42.72
63321;BME280;49449;48.800;9.534;2024-02-23T04:19:49;96792.00;;;4.38;43.71
63321;BME280;49449;48.800;9.534;2024-02-23T04:22:18;96787.22;;;4.35;43.29
63321;BME280;49449;48.800;9.534;2024-02-23T04:24:45;96775.66;;;4.19;43.73
63321;BME280;49449;48.800;9.534;2024-02-23T04:27:13;96790.09;;;3.98;44.09
63321;BME280;49449;48.800;9.534;2024-02-23T04:29:41;96790.19;;;4.15;43.94
63321;BME280;49449;48.800;9.534;2024-02-23T04:32:09;96792.81;;;3.80;45.00
63321;BME280;49449;48.800;9.534;2024-02-23T04:34:37;96781.56;;;3.91;45.07
63321;BME280;49449;48.800;9.534;2024-02-23T04:37:06;96778.00;;;3.62;46.06
63321;BME280;49449;48.800;9.534;2024-02-23T04:39:35;96778.47;;;3.71;45.46
63321;BME280;49449;48.800;9.534;2024-02-23T04:42:04;96771.41;;;3.48;44.59
63321;BME280;49449;48.800;9.534;2024-02-23T04:44:35;96772.59;;;3.75;44.75
63321;BME280;49449;48.800;9.534;2024-02-23T04:47:02;96781.56;;;4.03;44.24
63321;BME280;49449;48.800;9.534;2024-02-23T04:49:30;96777.13;;;3.92;43.79
63321;BME280;49449;48.800;9.534;2024-02-23T04:51:58;96783.72;;;4.06;43.59
63321;BME280;49449;48.800;9.534;2024-02-23T04:54:26;96771.75;;;4.22;42.93
63321;BME280;49449;48.800;9.534;2024-02-23T04:56:55;96766.72;;;4.56;42.05
63321;BME280;49449;48.800;9.534;2024-02-23T04:59:23;96755.41;;;4.15;42.35
63321;BME280;49449;48.800;9.534;2024-02-23T05:01:51;96766.75;;;4.44;42.33
63321;BME280;49449;48.800;9.534;2024-02-23T05:04:21;96775.47;;;4.50;41.89
63321;BME280;49449;48.800;9.534;2024-02-23T05:06:49;96765.22;;;4.60;41.84
63321;BME280;49449;48.800;9.534;2024-02-23T05:09:16;96766.03;;;4.89;41.13
63321;BME280;49449;48.800;9.534;2024-02-23T05:11:44;96760.31;;;5.04;41.60
63321;BME280;49449;48.800;9.534;2024-02-23T05:14:15;96762.88;;;5.16;41.86
63321;BME280;49449;48.800;9.534;2024-02-23T05:16:43;96763.94;;;5.32;40.59
63321;BME280;49449;48.800;9.534;2024-02-23T05:19:11;96760.44;;;5.43;40.60
63321;BME280;49449;48.800;9.534;2024-02-23T05:21:38;96750.91;;;5.54;40.55
63321;BME280;49449;48.800;9.534;2024-02-23T05:24:10;96754.72;;;5.63;40.21
63321;BME280;49449;48.800;9.534;2024-02-23T05:26:39;96772.44;;;5.73;40.28
63321;BME280;49449;48.800;9.534;2024-02-23T05:29:07;96778.53;;;5.79;40.18
63321;BME280;49449;48.800;9.534;2024-02-23T05:31:47;96780.38;;;5.78;40.06
63321;BME280;49449;48.800;9.534;2024-02-23T05:34:15;96780.69;;;5.82;39.87
63321;BME280;49449;48.800;9.534;2024-02-23T05:36:43;96772.59;;;5.83;40.07
63321;BME280;49449;48.800;9.534;2024-02-23T05:39:12;96773.47;;;5.89;40.12
63321;BME280;49449;48.800;9.534;2024-02-23T05:41:42;96775.91;;;5.96;40.06
63321;BME280;49449;48.800;9.534;2024-02-23T05:44:09;96777.25;;;5.98;39.53
63321;BME280;49449;48.800;9.534;2024-02-23T05:46:39;96790.44;;;6.03;39.62
63321;BME280;49449;48.800;9.534;2024-02-23T05:49:09;96781.94;;;5.96;39.77
63321;BME280;49449;48.800;9.534;2024-02-23T05:51:36;96782.59;;;5.86;39.79
63321;BME280;49449;48.800;9.534;2024-02-23T05:54:04;96786.41;;;5.79;40.29
63321;BME280;49449;48.800;9.534;2024-02-23T05:56:32;96792.84;;;5.54;40.63
63321;BME280;49449;48.800;9.534;2024-02-23T05:59:00;96799.22;;;4.72;42.52
63321;BME280;49449;48.800;9.534;2024-02-23T06:01:28;96794.56;;;4.62;42.92
63321;BME280;49449;48.800;9.534;2024-02-23T06:03:56;96811.34;;;4.78;42.93
63321;BME280;49449;48.800;9.534;2024-02-23T06:06:26;96801.31;;;4.99;42.47
63321;BME280;49449;48.800;9.534;2024-02-23T06:08:54;96806.44;;;5.22;42.42
63321;BME280;49449;48.800;9.534;2024-02-23T06:11:21;96815.34;;;5.38;41.60
63321;BME280;49449;48.800;9.534;2024-02-23T06:13:49;96810.84;;;5.50;41.86
63321;BME280;49449;48.800;9.534;2024-02-23T06:16:17;96816.97;;;5.56;41.76
63321;BME280;49449;48.800;9.534;2024-02-23T06:18:45;96807.63;;;5.60;41.11
63321;BME280;49449;48.800;9.534;2024-02-23T06:21:14;96829.41;;;5.49;41.10
63321;BME280;49449;48.800;9.534;2024-02-23T06:23:43;96835.88;;;5.01;41.71
63321;BME280;49449;48.800;9.534;2024-02-23T06:26:11;96829.22;;;4.81;42.29
63321;BME280;49449;48.800;9.534;2024-02-23T06:28:39;96818.59;;;5.00;42.13
63321;BME280;49449;48.800;9.534;2024-02-23T06:31:09;96825.41;;;5.01;42.11
63321;BME280;49449;48.800;9.534;2024-02-23T06:33:37;96828.03;;;4.89;42.61
63321;BME280;49449;48.800;9.534;2024-02-23T06:36:07;96827.59;;;4.92;42.38
63321;BME280;49449;48.800;9.534;2024-02-23T06:38:35;96822.16;;;4.70;43.04
63321;BME280;49449;48.800;9.534;2024-02-23T06:41:04;96818.84;;;4.86;42.90
63321;BME280;49449;48.800;9.534;2024-02-23T06:43:34;96811.66;;;5.05;42.57
63321;BME280;49449;48.800;9.534;2024-02-23T06:46:05;96809.91;;;5.11;42.23
63321;BME280;49449;48.800;9.534;2024-02-23T06:48:33;96805.59;;;5.05;42.32
63321;BME280;49449;48.800;9.534;2024-02-23T06:51:01;96809.91;;;5.11;42.52
63321;BME280;49449;48.800;9.534;2024-02-23T06:53:29;96806.25;;;5.12;42.67
63321;BME280;49449;48.800;9.534;2024-02-23T06:55:58;96812.84;;;5.14;42.64
63321;BME280;49449;48.800;9.534;2024-02-23T06:58:28;96806.91;;;4.90;42.83
63321;BME280;49449;48.800;9.534;2024-02-23T07:00:56;96812.56;;;4.99;42.78
63321;BME280;49449;48.800;9.534;2024-02-23T07:03:24;96807.56;;;4.98;42.69
63321;BME280;49449;48.800;9.534;2024-02-23T07:05:52;96804.16;;;4.97;42.94
63321;BME280;49449;48.800;9.534;2024-02-23T07:08:19;96807.00;;;4.95;42.67
63321;BME280;49449;48.800;9.534;2024-02-23T07:10:47;96806.31;;;4.88;43.34
63321;BME280;49449;48.800;9.534;2024-02-23T07:13:17;96813.13;;;4.89;43.46
63321;BME280;49449;48.800;9.534;2024-02-23T07:15:47;96814.75;;;4.90;43.50
63321;BME280;49449;48.800;9.534;2024-02-23T07:18:15;96823.91;;;5.05;43.31
63321;BME280;49449;48.800;9.534;2024-02-23T07:20:43;96830.00;;;5.22;42.78
63321;BME280;49449;48.800;9.534;2024-02-23T07:23:11;96838.28;;;5.31;42.95
63321;BME280;49449;48.800;9.534;2024-02-23T07:25:39;96829.22;;;5.39;43.04
63321;BME280;49449;48.800;9.534;2024-02-23T07:28:07;96838.78;;;5.45;42.72
63321;BME280;49449;48.800;9.534;2024-02-23T07:30:35;96834.34;;;5.45;43.12
63321;BME280;49449;48.800;9.534;2024-02-23T07:33:09;96842.38;;;5.56;42.75
63321;BME280;49449;48.800;9.534;2024-02-23T07:35:37;96840.63;;;5.61;42.81
63321;BME280;49449;48.800;9.534;2024-02-23T07:38:05;96851.25;;;5.55;42.82
63321;BME280;49449;48.800;9.534;2024-02-23T07:40:32;96845.47;;;5.52;43.10
63321;BME280;49449;48.800;9.534;2024-02-23T07:43:00;96848.94;;;5.41;42.94
63321;BME280;49449;48.800;9.534;2024-02-23T07:45:28;96840.03;;;5.42;43.18
63321;BME280;49449;48.800;9.534;2024-02-23T07:48:00;96838.06;;;5.32;43.34
63321;BME280;49449;48.800;9.534;2024-02-23T07:50:31;96835.22;;;5.51;42.54
63321;BME280;49449;48.800;9.534;2024-02-23T07:52:58;96834.06;;;5.59;42.27
63321;BME280;49449;48.800;9.534;2024-02-23T07:55:26;96836.16;;;5.45;41.50
63321;BME280;49449;48.800;9.534;2024-02-23T07:57:54;96837.91;;;5.39;42.06
63321;BME280;49449;48.800;9.534;2024-02-23T08:00:27;96832.91;;;5.38;41.58
63321;BME280;49449;48.800;9.534;2024-02-23T08:02:55;96830.00;;;5.22;41.38
63321;BME280;49449;48.800;9.534;2024-02-23T08:05:25;96835.78;;;5.24;41.50
63321;BME280;49449;48.800;9.534;2024-02-23T08:07:54;96831.09;;;4.86;41.80
63321;BME280;49449;48.800;9.534;2024-02-23T08:10:22;96848.78;;;5.19;41.76
63321;BME280;49449;48.800;9.534;2024-02-23T08:12:52;96838.66;;;5.23;41.09
63321;BME280;49449;48.800;9.534;2024-02-23T08:15:20;96847.81;;;5.08;40.59
63321;BME280;49449;48.800;9.534;2024-02-23T08:17:47;96857.50;;;5.08;40.82
63321;BME280;49449;48.800;9.534;2024-02-23T08:20:15;96847.56;;;5.39;40.52
63321;BME280;49449;48.800;9.534;2024-02-23T08:22:43;96849.78;;;5.59;40.45
63321;BME280;49449;48.800;9.534;2024-02-23T08:25:12;96854.00;;;5.77;40.42
63321;BME280;49449;48.800;9.534;2024-02-23T08:27:41;96861.06;;;5.93;40.02
63321;BME280;49449;48.800;9.534;2024-02-23T08:30:10;96852.09;;;5.89;39.85
63321;BME280;49449;48.800;9.534;2024-02-23T08:32:38;96858.34;;;5.71;38.69
63321;BME280;49449;48.800;9.534;2024-02-23T08:35:07;96862.03;;;5.41;39.51
63321;BME280;49449;48.800;9.534;2024-02-23T08:37:37;96855.09;;;5.35;39.56
63321;BME280;49449;48.800;9.534;2024-02-23T08:40:07;96850.81;;;5.29;39.84
63321;BME280;49449;48.800;9.534;2024-02-23T08:42:36;96854.19;;;5.58;39.74
63321;BME280;49449;48.800;9.534;2024-02-23T08:45:05;96853.84;;;5.83;39.33
63321;BME280;49449;48.800;9.534;2024-02-23T08:47:33;96846.63;;;5.90;39.34
63321;BME280;49449;48.800;9.534;2024-02-23T08:50:02;96850.66;;;5.81;38.69
63321;BME280;49449;48.800;9.534;2024-02-23T08:52:30;96855.28;;;5.91;39.21
63321;BME280;49449;48.800;9.534;2024-02-23T08:54:58;96844.38;;;5.82;38.65
63321;BME280;49449;48.800;9.534;2024-02-23T08:57:27;96853.41;;;5.58;39.45
63321;BME280;49449;48.800;9.534;2024-02-23T08:59:56;96844.91;;;5.50;38.35
63321;BME280;49449;48.800;9.534;2024-02-23T09:02:24;96849.34;;;5.50;38.86
63321;BME280;49449;48.800;9.534;2024-02-23T09:04:52;96843.16;;;5.39;38.38
63321;BME280;49449;48.800;9.534;2024-02-23T09:07:20;96856.09;;;5.17;39.05
63321;BME280;49449;48.800;9.534;2024-02-23T09:09:48;96845.16;;;4.91;38.89
63321;BME280;49449;48.800;9.534;2024-02-23T09:12:16;96845.63;;;5.17;38.13
63321;BME280;49449;48.800;9.534;2024-02-23T09:14:43;96853.66;;;4.75;38.86
63321;BME280;49449;48.800;9.534;2024-02-23T09:17:13;96859.03;;;4.68;39.75
63321;BME280;49449;48.800;9.534;2024-02-23T09:19:41;96850.19;;;4.34;39.81
63321;BME280;49449;48.800;9.534;2024-02-23T09:22:09;96855.19;;;4.24;40.08
63321;BME280;49449;48.800;9.534;2024-02-23T09:24:39;96853.69;;;4.63;38.85
63321;BME280;49449;48.800;9.534;2024-02-23T09:27:06;96862.44;;;4.81;38.73
63321;BME280;49449;48.800;9.534;2024-02-23T09:29:34;96863.00;;;4.83;38.52
63321;BME280;49449;48.800;9.534;2024-02-23T09:32:02;96864.00;;;5.05;38.18
63321;BME280;49449;48.800;9.534;2024-02-23T09:34:32;96868.56;;;4.86;37.85
63321;BME280;49449;48.800;9.534;2024-02-23T09:37:00;96868.91;;;4.90;37.91
63321;BME280;49449;48.800;9.534;2024-02-23T09:39:28;96875.81;;;5.08;37.73
63321;BME280;49449;48.800;9.534;2024-02-23T09:41:56;96876.31;;;5.33;37.23
63321;BME280;49449;48.800;9.534;2024-02-23T09:44:26;96882.00;;;5.59;37.33
63321;BME280;49449;48.800;9.534;2024-02-23T09:47:00;96879.19;;;5.95;37.20
63321;BME280;49449;48.800;9.534;2024-02-23T09:49:38;96888.66;;;5.50;36.54
63321;BME280;49449;48.800;9.534;2024-02-23T09:52:10;96880.19;;;5.77;36.20
63321;BME280;49449;48.800;9.534;2024-02-23T09:54:39;96880.38;;;5.87;35.96
63321;BME280;49449;48.800;9.534;2024-02-23T09:57:08;96885.78;;;5.97;35.57
63321;BME280;49449;48.800;9.534;2024-02-23T09:59:37;96883.31;;;6.24;35.73
63321;BME280;49449;48.800;9.534;2024-02-23T10:02:07;96882.75;;;5.88;35.06
63321;BME280;49449;48.800;9.534;2024-02-23T10:04:38;96885.59;;;5.70;34.71
63321;BME280;49449;48.800;9.534;2024-02-23T10:07:07;96888.06;;;6.11;35.73
63321;BME280;49449;48.800;9.534;2024-02-23T10:09:35;96873.09;;;6.40;35.35
63321;BME280;49449;48.800;9.534;2024-02-23T10:12:04;96864.13;;;6.58;34.85
63321;BME280;49449;48.800;9.534;2024-02-23T10:14:32;96860.97;;;6.56;34.66
63321;BME280;49449;48.800;9.534;2024-02-23T10:17:06;96872.81;;;6.07;35.45
63321;BME280;49449;48.800;9.534;2024-02-23T10:19:34;96874.34;;;6.03;35.43
63321;BME280;49449;48.800;9.534;2024-02-23T10:22:04;96886.19;;;6.06;35.88
63321;BME280;49449;48.800;9.534;2024-02-23T10:24:32;96898.00;;;5.75;35.45
63321;BME280;49449;48.800;9.534;2024-02-23T10:27:00;96892.44;;;5.71;35.83
63321;BME280;49449;48.800;9.534;2024-02-23T10:29:28;96895.22;;;5.52;36.70
63321;BME280;49449;48.800;9.534;2024-02-23T10:31:57;96897.03;;;5.64;36.35
63321;BME280;49449;48.800;9.534;2024-02-23T10:34:29;96885.22;;;5.78;36.45
63321;BME280;49449;48.800;9.534;2024-02-23T10:36:57;96889.22;;;5.23;36.97
63321;BME280;49449;48.800;9.534;2024-02-23T10:39:29;96885.69;;;5.18;36.55
63321;BME280;49449;48.800;9.534;2024-02-23T10:42:02;96887.13;;;5.37;36.77
63321;BME280;49449;48.800;9.534;2024-02-23T10:44:32;96893.84;;;5.62;36.02
63321;BME280;49449;48.800;9.534;2024-02-23T10:47:01;96880.53;;;5.80;35.79
63321;BME280;49449;48.800;9.534;2024-02-23T10:49:30;96875.78;;;5.94;35.48
63321;BME280;49449;48.800;9.534;2024-02-23T10:51:58;96881.63;;;5.67;35.70
63321;BME280;49449;48.800;9.534;2024-02-23T10:54:31;96874.50;;;5.80;35.70
63321;BME280;49449;48.800;9.534;2024-02-23T10:57:01;96864.78;;;5.80;35.35
63321;BME280;49449;48.800;9.534;2024-02-23T10:59:32;96864.47;;;5.77;35.27
63321;BME280;49449;48.800;9.534;2024-02-23T11:02:01;96855.66;;;5.66;35.70
63321;BME280;49449;48.800;9.534;2024-02-23T11:04:31;96858.00;;;5.50;35.40
63321;BME280;49449;48.800;9.534;2024-02-23T11:07:00;96855.13;;;5.98;35.70
63321;BME280;49449;48.800;9.534;2024-02-23T11:09:35;96856.63;;;5.77;36.02
63321;BME280;49449;48.800;9.534;2024-02-23T11:12:04;96850.28;;;6.06;35.43
63321;BME280;49449;48.800;9.534;2024-02-23T11:14:37;96850.97;;;6.19;34.65
63321;BME280;49449;48.800;9.534;2024-02-23T11:17:05;96853.69;;;6.24;34.89
63321;BME280;49449;48.800;9.534;2024-02-23T11:19:33;96853.94;;;5.88;34.60
63321;BME280;49449;48.800;9.534;2024-02-23T11:22:02;96857.72;;;5.35;34.56
63321;BME280;49449;48.800;9.534;2024-02-23T11:24:31;96849.88;;;5.06;35.77
63321;BME280;49449;48.800;9.534;2024-02-23T11:27:01;96848.53;;;5.32;35.46
63321;BME280;49449;48.800;9.534;2024-02-23T11:29:34;96846.34;;;5.58;35.55
63321;BME280;49449;48.800;9.534;2024-02-23T11:32:12;96845.72;;;5.68;35.14
63321;BME280;49449;48.800;9.534;2024-02-23T11:34:40;96847.72;;;5.95;34.75
63321;BME280;49449;48.800;9.534;2024-02-23T11:37:10;96857.50;;;5.99;34.90
63321;BME280;49449;48.800;9.534;2024-02-23T11:39:38;96853.44;;;5.92;34.75
63321;BME280;49449;48.800;9.534;2024-02-23T11:42:08;96848.50;;;6.12;34.57
63321;BME280;49449;48.800;9.534;2024-02-23T11:44:37;96838.41;;;6.21;34.50
63321;BME280;49449;48.800;9.534;2024-02-23T11:47:07;96847.69;;;6.28;34.55
63321;BME280;49449;48.800;9.534;2024-02-23T11:49:35;96858.53;;;6.32;33.90
63321;BME280;49449;48.800;9.534;2024-02-23T11:52:03;96847.94;;;6.27;34.14
63321;BME280;49449;48.800;9.534;2024-02-23T11:54:31;96843.47;;;6.44;34.14
63321;BME280;49449;48.800;9.534;2024-02-23T11:56:58;96842.94;;;6.42;34.17
63321;BME280;49449;48.800;9.534;2024-02-23T11:59:28;96852.25;;;6.50;34.03
63321;BME280;49449;48.800;9.534;2024-02-23T12:01:56;96854.41;;;6.36;34.24
63321;BME280;49449;48.800;9.534;2024-02-23T12:04:26;96840.00;;;6.39;33.89
63321;BME280;49449;48.800;9.534;2024-02-23T12:06:58;96847.47;;;6.47;34.03
63321;BME280;49449;48.800;9.534;2024-02-23T12:09:26;96839.66;;;6.52;33.91
63321;BME280;49449;48.800;9.534;2024-02-23T12:11:54;96838.75;;;6.63;34.08
63321;BME280;49449;48.800;9.534;2024-02-23T12:14:22;96827.34;;;6.36;33.63
63321;BME280;49449;48.800;9.534;2024-02-23T12:16:52;96826.72;;;6.28;34.70
63321;BME280;49449;48.800;9.534;2024-02-23T12:19:22;96815.38;;;6.62;34.16
63321;BME280;49449;48.800;9.534;2024-02-23T12:21:50;96814.34;;;6.85;33.61
63321;BME280;49449;48.800;9.534;2024-02-23T12:24:17;96807.28;;;6.86;33.79
63321;BME280;49449;48.800;9.534;2024-02-23T12:26:45;96809.50;;;6.99;33.23
63321;BME280;49449;48.800;9.534;2024-02-23T12:29:13;96799.94;;;6.88;33.52
63321;BME280;49449;48.800;9.534;2024-02-23T12:31:41;96788.91;;;6.86;33.38
63321;BME280;49449;48.800;9.534;2024-02-23T12:34:13;96806.16;;;6.81;33.52
63321;BME280;49449;48.800;9.534;2024-02-23T12:36:41;96800.47;;;6.90;32.78
63321;BME280;49449;48.800;9.534;2024-02-23T12:39:10;96805.47;;;6.69;33.08
63321;BME280;49449;48.800;9.534;2024-02-23T12:41:38;96808.53;;;6.83;33.36
63321;BME280;49449;48.800;9.534;2024-02-23T12:44:07;96807.69;;;6.99;32.90
63321;BME280;49449;48.800;9.534;2024-02-23T12:46:35;96792.59;;;6.90;33.19
63321;BME280;49449;48.800;9.534;2024-02-23T12:49:02;96798.16;;;6.93;33.34
63321;BME280;49449;48.800;9.534;2024-02-23T12:51:32;96800.25;;;6.91;33.69
63321;BME280;49449;48.800;9.534;2024-02-23T12:54:00;96803.00;;;6.79;33.47
63321;BME280;49449;48.800;9.534;2024-02-23T12:56:27;96811.94;;;6.83;33.11
63321;BME280;49449;48.800;9.534;2024-02-23T12:58:55;96809.03;;;7.02;33.19
63321;BME280;49449;48.800;9.534;2024-02-23T13:01:23;96811.88;;;7.22;32.72
63321;BME280;49449;48.800;9.534;2024-02-23T13:03:51;96811.47;;;7.36;32.61
63321;BME280;49449;48.800;9.534;2024-02-23T13:06:19;96812.50;;;7.08;32.47
63321;BME280;49449;48.800;9.534;2024-02-23T13:08:49;96810.94;;;6.62;33.46
63321;BME280;49449;48.800;9.534;2024-02-23T13:11:17;96809.03;;;6.80;33.41
63321;BME280;49449;48.800;9.534;2024-02-23T13:13:45;96810.75;;;7.18;33.22
63321;BME280;49449;48.800;9.534;2024-02-23T13:16:13;96794.75;;;7.20;33.10